sensor_id;sensor_type;location;lat;lon;timestamp;temperature;humidity
20732;DHT22;10527;52.124;5.196;2023-04-15T00:01:00;11.20;99.90
20732;DHT22;10527;52.124;5.196;2023-04-15T00:03:26;11.10;99.90
20732;DHT22;10527;52.124;5.196;2023-04-15T00:05:56;11.20;99.90
20732;DHT22;10527;52.124;5.196;2023-04-15T00:08:26;11.20;99.90
20732;DHT22;10527;52.124;5.196;2023-04-15T00:10:54;11.20;99.90
20732;DHT22;10527;52.124;5.196;2023-04-15T00:13:21;11.20;99.90
20732;DHT22;10527;52.124;5.196;2023-04-15T00:15:47;11.20;99.90
20732;DHT22;10527;52.124;5.196;2023-04-15T00:18:14;11.20;99.90
20732;DHT22;10527;52.124;5.196;2023-04-15T00:20:41;11.20;99.90
20732;DHT22;10527;52.124;5.196;2023-04-15T00:23:08;11.10;99.90
20732;DHT22;10527;52.124;5.196;2023-04-15T00:25:34;11.10;99.90
20732;DHT22;10527;52.124;5.196;2023-04-15T00:28:01;11.10;99.90
20732;DHT22;10527;52.124;5.196;2023-04-15T00:30:29;11.10;99.90
20732;DHT22;10527;52.124;5.196;2023-04-15T00:32:57;11.10;99.90
20732;DHT22;10527;52.124;5.196;2023-04-15T00:35:24;11.10;99.90
20732;DHT22;10527;52.124;5.196;2023-04-15T00:37:51;11.10;99.90
20732;DHT22;10527;52.124;5.196;2023-04-15T00:40:19;11.00;99.90
20732;DHT22;10527;52.124;5.196;2023-04-15T00:42:47;11.00;99.90
20732;DHT22;10527;52.124;5.196;2023-04-15T00:45:14;11.00;99.90
20732;DHT22;10527;52.124;5.196;2023-04-15T00:47:42;10.90;99.90
20732;DHT22;10527;52.124;5.196;2023-04-15T00:50:10;10.90;99.90
20732;DHT22;10527;52.124;5.196;2023-04-15T00:52:39;10.90;99.90
20732;DHT22;10527;52.124;5.196;2023-04-15T00:55:08;10.90;99.90
20732;DHT22;10527;52.124;5.196;2023-04-15T00:57:35;10.80;99.90
20732;DHT22;10527;52.124;5.196;2023-04-15T01:00:06;10.90;99.90
20732;DHT22;10527;52.124;5.196;2023-04-15T01:02:34;10.80;99.90
20732;DHT22;10527;52.124;5.196;2023-04-15T01:05:03;10.80;99.90
20732;DHT22;10527;52.124;5.196;2023-04-15T01:07:31;10.70;99.90
20732;DHT22;10527;52.124;5.196;2023-04-15T01:09:58;10.70;99.90
20732;DHT22;10527;52.124;5.196;2023-04-15T01:12:26;10.60;99.90
20732;DHT22;10527;52.124;5.196;2023-04-15T01:14:54;10.70;99.90
20732;DHT22;10527;52.124;5.196;2023-04-15T01:17:23;10.70;99.90
20732;DHT22;10527;52.124;5.196;2023-04-15T01:19:51;10.70;99.90
20732;DHT22;10527;52.124;5.196;2023-04-15T01:22:20;10.70;99.90
20732;DHT22;10527;52.124;5.196;2023-04-15T01:24:54;10.60;99.90
20732;DHT22;10527;52.124;5.196;2023-04-15T01:27:40;10.70;99.90
20732;DHT22;10527;52.124;5.196;2023-04-15T01:30:08;10.50;99.90
20732;DHT22;10527;52.124;5.196;2023-04-15T01:32:36;10.50;99.90
20732;DHT22;10527;52.124;5.196;2023-04-15T01:35:03;10.30;99.90
20732;DHT22;10527;52.124;5.196;2023-04-15T01:37:31;10.30;99.90
20732;DHT22;10527;52.124;5.196;2023-04-15T01:39:58;10.30;99.90
20732;DHT22;10527;52.124;5.196;2023-04-15T01:42:26;10.20;99.90
20732;DHT22;10527;52.124;5.196;2023-04-15T01:44:53;10.20;99.90
20732;DHT22;10527;52.124;5.196;2023-04-15T01:47:20;10.20;99.90
20732;DHT22;10527;52.124;5.196;2023-04-15T01:49:47;10.20;99.90
20732;DHT22;10527;52.124;5.196;2023-04-15T01:52:14;10.20;99.90
20732;DHT22;10527;52.124;5.196;2023-04-15T01:54:41;10.30;99.90
20732;DHT22;10527;52.124;5.196;2023-04-15T01:57:08;10.20;99.90
20732;DHT22;10527;52.124;5.196;2023-04-15T01:59:35;10.20;99.90
20732;DHT22;10527;52.124;5.196;2023-04-15T02:02:02;10.10;99.90
20732;DHT22;10527;52.124;5.196;2023-04-15T02:04:30;10.10;99.90
20732;DHT22;10527;52.124;5.196;2023-04-15T02:06:58;10.10;99.90
20732;DHT22;10527;52.124;5.196;2023-04-15T02:09:25;10.00;99.90
20732;DHT22;10527;52.124;5.196;2023-04-15T02:11:52;10.00;99.90
20732;DHT22;10527;52.124;5.196;2023-04-15T02:14:19;10.00;99.90
20732;DHT22;10527;52.124;5.196;2023-04-15T02:16:46;10.00;99.90
20732;DHT22;10527;52.124;5.196;2023-04-15T02:19:13;10.00;99.90
20732;DHT22;10527;52.124;5.196;2023-04-15T02:21:40;9.90;99.90
20732;DHT22;10527;52.124;5.196;2023-04-15T02:24:07;9.90;99.90
20732;DHT22;10527;52.124;5.196;2023-04-15T02:26:34;9.90;99.90
20732;DHT22;10527;52.124;5.196;2023-04-15T02:29:02;9.80;99.90
20732;DHT22;10527;52.124;5.196;2023-04-15T02:31:29;9.80;99.90
20732;DHT22;10527;52.124;5.196;2023-04-15T02:33:57;9.80;99.90
20732;DHT22;10527;52.124;5.196;2023-04-15T02:36:24;9.90;99.90
20732;DHT22;10527;52.124;5.196;2023-04-15T02:38:52;9.80;99.90
20732;DHT22;10527;52.124;5.196;2023-04-15T02:41:19;9.80;99.90
20732;DHT22;10527;52.124;5.196;2023-04-15T02:43:48;9.70;99.90
20732;DHT22;10527;52.124;5.196;2023-04-15T02:46:14;9.60;99.90
20732;DHT22;10527;52.124;5.196;2023-04-15T02:48:42;9.60;99.90
20732;DHT22;10527;52.124;5.196;2023-04-15T02:51:17;9.50;99.90
20732;DHT22;10527;52.124;5.196;2023-04-15T02:53:47;9.50;99.90
20732;DHT22;10527;52.124;5.196;2023-04-15T02:56:15;9.40;99.90
20732;DHT22;10527;52.124;5.196;2023-04-15T02:58:43;9.40;99.90
20732;DHT22;10527;52.124;5.196;2023-04-15T03:01:11;9.40;99.90
20732;DHT22;10527;52.124;5.196;2023-04-15T03:03:38;9.30;99.90
20732;DHT22;10527;52.124;5.196;2023-04-15T03:06:05;9.30;99.90
20732;DHT22;10527;52.124;5.196;2023-04-15T03:08:32;9.30;99.90
20732;DHT22;10527;52.124;5.196;2023-04-15T03:10:58;9.20;99.90
20732;DHT22;10527;52.124;5.196;2023-04-15T03:13:27;9.20;99.90
20732;DHT22;10527;52.124;5.196;2023-04-15T03:15:54;9.20;99.90
20732;DHT22;10527;52.124;5.196;2023-04-15T03:18:21;9.20;99.90
20732;DHT22;10527;52.124;5.196;2023-04-15T03:20:48;9.20;99.90
20732;DHT22;10527;52.124;5.196;2023-04-15T03:23:15;9.10;99.90
20732;DHT22;10527;52.124;5.196;2023-04-15T03:25:43;9.10;99.90
20732;DHT22;10527;52.124;5.196;2023-04-15T03:28:11;9.10;99.90
20732;DHT22;10527;52.124;5.196;2023-04-15T03:30:37;9.00;99.90
20732;DHT22;10527;52.124;5.196;2023-04-15T03:33:04;8.90;99.90
20732;DHT22;10527;52.124;5.196;2023-04-15T03:35:34;8.90;99.90
20732;DHT22;10527;52.124;5.196;2023-04-15T03:38:01;8.80;99.90
20732;DHT22;10527;52.124;5.196;2023-04-15T03:40:28;8.90;99.90
20732;DHT22;10527;52.124;5.196;2023-04-15T03:42:55;8.90;99.90
20732;DHT22;10527;52.124;5.196;2023-04-15T03:45:22;8.80;99.90
20732;DHT22;10527;52.124;5.196;2023-04-15T03:47:49;8.90;99.90
20732;DHT22;10527;52.124;5.196;2023-04-15T03:50:18;8.90;99.90
20732;DHT22;10527;52.124;5.196;2023-04-15T03:52:45;8.90;99.90
20732;DHT22;10527;52.124;5.196;2023-04-15T03:55:12;8.90;99.90
20732;DHT22;10527;52.124;5.196;2023-04-15T03:57:38;8.90;99.90
20732;DHT22;10527;52.124;5.196;2023-04-15T04:00:07;8.80;99.90
20732;DHT22;10527;52.124;5.196;2023-04-15T04:02:35;8.70;99.90
20732;DHT22;10527;52.124;5.196;2023-04-15T04:05:03;8.70;99.90
20732;DHT22;10527;52.124;5.196;2023-04-15T04:07:30;8.70;99.90
20732;DHT22;10527;52.124;5.196;2023-04-15T04:09:57;8.70;99.90
20732;DHT22;10527;52.124;5.196;2023-04-15T04:12:23;8.60;99.90
20732;DHT22;10527;52.124;5.196;2023-04-15T04:14:50;8.60;99.90
20732;DHT22;10527;52.124;5.196;2023-04-15T04:17:17;8.70;99.90
20732;DHT22;10527;52.124;5.196;2023-04-15T04:19:44;8.60;99.90
20732;DHT22;10527;52.124;5.196;2023-04-15T04:22:10;8.60;99.90
20732;DHT22;10527;52.124;5.196;2023-04-15T04:24:37;8.50;99.90
20732;DHT22;10527;52.124;5.196;2023-04-15T04:27:04;8.50;99.90
20732;DHT22;10527;52.124;5.196;2023-04-15T04:29:31;8.40;99.90
20732;DHT22;10527;52.124;5.196;2023-04-15T04:31:58;8.40;99.90
20732;DHT22;10527;52.124;5.196;2023-04-15T04:34:25;8.40;99.90
20732;DHT22;10527;52.124;5.196;2023-04-15T04:36:52;8.40;99.90
20732;DHT22;10527;52.124;5.196;2023-04-15T04:39:18;8.40;99.90
20732;DHT22;10527;52.124;5.196;2023-04-15T04:41:45;8.30;99.90
20732;DHT22;10527;52.124;5.196;2023-04-15T04:44:12;8.20;99.90
20732;DHT22;10527;52.124;5.196;2023-04-15T04:46:39;8.30;99.90
20732;DHT22;10527;52.124;5.196;2023-04-15T04:49:06;8.20;99.90
20732;DHT22;10527;52.124;5.196;2023-04-15T04:51:32;8.20;99.90
20732;DHT22;10527;52.124;5.196;2023-04-15T04:53:59;8.20;99.90
20732;DHT22;10527;52.124;5.196;2023-04-15T04:56:29;8.20;99.90
20732;DHT22;10527;52.124;5.196;2023-04-15T04:58:56;8.10;99.90
20732;DHT22;10527;52.124;5.196;2023-04-15T05:01:23;8.20;99.90
20732;DHT22;10527;52.124;5.196;2023-04-15T05:03:52;8.20;99.90
20732;DHT22;10527;52.124;5.196;2023-04-15T05:06:19;8.10;99.90
20732;DHT22;10527;52.124;5.196;2023-04-15T05:08:46;8.10;99.90
20732;DHT22;10527;52.124;5.196;2023-04-15T05:11:13;8.00;99.90
20732;DHT22;10527;52.124;5.196;2023-04-15T05:13:40;8.10;99.90
20732;DHT22;10527;52.124;5.196;2023-04-15T05:16:07;8.10;99.90
20732;DHT22;10527;52.124;5.196;2023-04-15T05:18:35;8.10;99.90
20732;DHT22;10527;52.124;5.196;2023-04-15T05:21:02;7.80;99.90
20732;DHT22;10527;52.124;5.196;2023-04-15T05:23:29;7.90;99.90
20732;DHT22;10527;52.124;5.196;2023-04-15T05:25:56;7.90;99.90
20732;DHT22;10527;52.124;5.196;2023-04-15T05:28:27;7.90;99.90
20732;DHT22;10527;52.124;5.196;2023-04-15T05:30:54;7.90;99.90
20732;DHT22;10527;52.124;5.196;2023-04-15T05:33:22;7.90;99.90
20732;DHT22;10527;52.124;5.196;2023-04-15T05:35:48;7.90;99.90
20732;DHT22;10527;52.124;5.196;2023-04-15T05:38:16;7.90;99.90
20732;DHT22;10527;52.124;5.196;2023-04-15T05:40:43;7.90;99.90
20732;DHT22;10527;52.124;5.196;2023-04-15T05:43:10;7.80;99.90
20732;DHT22;10527;52.124;5.196;2023-04-15T05:45:37;7.80;99.90
20732;DHT22;10527;52.124;5.196;2023-04-15T05:48:04;7.80;99.90
20732;DHT22;10527;52.124;5.196;2023-04-15T05:50:30;7.90;99.90
20732;DHT22;10527;52.124;5.196;2023-04-15T05:52:57;7.90;99.90
20732;DHT22;10527;52.124;5.196;2023-04-15T05:55:24;7.90;99.90
20732;DHT22;10527;52.124;5.196;2023-04-15T05:57:51;8.00;99.90
20732;DHT22;10527;52.124;5.196;2023-04-15T06:00:19;7.90;99.90
20732;DHT22;10527;52.124;5.196;2023-04-15T06:02:46;7.90;99.90
20732;DHT22;10527;52.124;5.196;2023-04-15T06:05:14;8.00;99.90
20732;DHT22;10527;52.124;5.196;2023-04-15T06:07:40;8.00;99.90
20732;DHT22;10527;52.124;5.196;2023-04-15T06:10:10;8.10;99.90
20732;DHT22;10527;52.124;5.196;2023-04-15T06:12:37;8.00;99.90
20732;DHT22;10527;52.124;5.196;2023-04-15T06:15:05;8.00;99.90
20732;DHT22;10527;52.124;5.196;2023-04-15T06:17:35;8.00;99.90
20732;DHT22;10527;52.124;5.196;2023-04-15T06:20:03;8.00;99.90
20732;DHT22;10527;52.124;5.196;2023-04-15T06:22:30;8.00;99.90
20732;DHT22;10527;52.124;5.196;2023-04-15T06:24:57;8.10;99.90
20732;DHT22;10527;52.124;5.196;2023-04-15T06:27:24;8.00;99.90
20732;DHT22;10527;52.124;5.196;2023-04-15T06:29:50;8.10;99.90
20732;DHT22;10527;52.124;5.196;2023-04-15T06:32:17;8.00;99.90
20732;DHT22;10527;52.124;5.196;2023-04-15T06:34:44;8.00;99.90
20732;DHT22;10527;52.124;5.196;2023-04-15T06:37:11;8.00;99.90
20732;DHT22;10527;52.124;5.196;2023-04-15T06:39:41;8.10;99.90
20732;DHT22;10527;52.124;5.196;2023-04-15T06:42:09;8.20;99.90
20732;DHT22;10527;52.124;5.196;2023-04-15T06:44:38;8.20;99.90
20732;DHT22;10527;52.124;5.196;2023-04-15T06:47:05;8.20;99.90
20732;DHT22;10527;52.124;5.196;2023-04-15T06:49:32;8.30;99.90
20732;DHT22;10527;52.124;5.196;2023-04-15T06:51:59;8.30;99.90
20732;DHT22;10527;52.124;5.196;2023-04-15T06:54:26;8.30;99.90
20732;DHT22;10527;52.124;5.196;2023-04-15T06:56:53;8.30;99.90
20732;DHT22;10527;52.124;5.196;2023-04-15T06:59:21;8.40;99.90
20732;DHT22;10527;52.124;5.196;2023-04-15T07:01:47;8.40;99.90
20732;DHT22;10527;52.124;5.196;2023-04-15T07:04:15;8.40;99.90
20732;DHT22;10527;52.124;5.196;2023-04-15T07:06:42;8.50;99.90
20732;DHT22;10527;52.124;5.196;2023-04-15T07:09:10;8.50;99.90
20732;DHT22;10527;52.124;5.196;2023-04-15T07:11:37;8.60;99.90
20732;DHT22;10527;52.124;5.196;2023-04-15T07:14:04;8.60;99.90
20732;DHT22;10527;52.124;5.196;2023-04-15T07:16:32;8.70;99.90
20732;DHT22;10527;52.124;5.196;2023-04-15T07:18:58;8.70;99.90
20732;DHT22;10527;52.124;5.196;2023-04-15T07:21:26;8.80;99.90
20732;DHT22;10527;52.124;5.196;2023-04-15T07:23:53;8.80;99.90
20732;DHT22;10527;52.124;5.196;2023-04-15T07:26:19;8.80;99.90
20732;DHT22;10527;52.124;5.196;2023-04-15T07:28:46;8.80;99.90
20732;DHT22;10527;52.124;5.196;2023-04-15T07:31:13;8.90;99.90
20732;DHT22;10527;52.124;5.196;2023-04-15T07:33:40;8.90;99.90
20732;DHT22;10527;52.124;5.196;2023-04-15T07:36:07;9.00;99.90
20732;DHT22;10527;52.124;5.196;2023-04-15T07:38:38;9.00;99.90
20732;DHT22;10527;52.124;5.196;2023-04-15T07:41:05;9.10;99.90
20732;DHT22;10527;52.124;5.196;2023-04-15T07:43:32;9.10;99.90
20732;DHT22;10527;52.124;5.196;2023-04-15T07:45:59;9.20;99.90
20732;DHT22;10527;52.124;5.196;2023-04-15T07:48:26;9.30;99.90
20732;DHT22;10527;52.124;5.196;2023-04-15T07:50:52;9.30;99.90
20732;DHT22;10527;52.124;5.196;2023-04-15T07:53:19;9.40;99.90
20732;DHT22;10527;52.124;5.196;2023-04-15T07:55:46;9.50;99.90
20732;DHT22;10527;52.124;5.196;2023-04-15T07:58:13;9.60;99.90
20732;DHT22;10527;52.124;5.196;2023-04-15T08:00:40;9.60;99.90
20732;DHT22;10527;52.124;5.196;2023-04-15T08:03:07;9.70;99.90
20732;DHT22;10527;52.124;5.196;2023-04-15T08:05:34;9.70;99.90
20732;DHT22;10527;52.124;5.196;2023-04-15T08:08:00;9.80;99.90
20732;DHT22;10527;52.124;5.196;2023-04-15T08:10:29;10.30;99.90
20732;DHT22;10527;52.124;5.196;2023-04-15T08:12:56;10.70;99.90
20732;DHT22;10527;52.124;5.196;2023-04-15T08:15:28;11.00;99.90
20732;DHT22;10527;52.124;5.196;2023-04-15T08:17:54;11.20;99.90
20732;DHT22;10527;52.124;5.196;2023-04-15T08:20:23;11.40;99.90
20732;DHT22;10527;52.124;5.196;2023-04-15T08:22:49;11.60;99.90
20732;DHT22;10527;52.124;5.196;2023-04-15T08:25:17;11.90;99.90
20732;DHT22;10527;52.124;5.196;2023-04-15T08:27:45;12.10;99.90
20732;DHT22;10527;52.124;5.196;2023-04-15T08:30:13;12.40;99.90
20732;DHT22;10527;52.124;5.196;2023-04-15T08:32:41;12.50;99.90
20732;DHT22;10527;52.124;5.196;2023-04-15T08:35:14;12.70;99.90
20732;DHT22;10527;52.124;5.196;2023-04-15T08:37:41;12.70;99.90
20732;DHT22;10527;52.124;5.196;2023-04-15T08:40:09;12.90;99.90
20732;DHT22;10527;52.124;5.196;2023-04-15T08:42:47;13.10;99.90
20732;DHT22;10527;52.124;5.196;2023-04-15T08:45:17;13.00;99.90
20732;DHT22;10527;52.124;5.196;2023-04-15T08:47:44;12.90;99.90
20732;DHT22;10527;52.124;5.196;2023-04-15T08:50:15;13.10;99.90
20732;DHT22;10527;52.124;5.196;2023-04-15T08:52:42;13.10;99.90
20732;DHT22;10527;52.124;5.196;2023-04-15T08:55:10;13.10;99.90
20732;DHT22;10527;52.124;5.196;2023-04-15T08:57:38;13.40;99.90
20732;DHT22;10527;52.124;5.196;2023-04-15T09:00:06;13.30;99.90
20732;DHT22;10527;52.124;5.196;2023-04-15T09:02:35;13.30;99.90
20732;DHT22;10527;52.124;5.196;2023-04-15T09:05:02;13.30;99.90
20732;DHT22;10527;52.124;5.196;2023-04-15T09:07:33;13.30;99.90
20732;DHT22;10527;52.124;5.196;2023-04-15T09:10:02;13.30;99.90
20732;DHT22;10527;52.124;5.196;2023-04-15T09:12:30;13.30;99.90
20732;DHT22;10527;52.124;5.196;2023-04-15T09:15:03;13.40;99.90
20732;DHT22;10527;52.124;5.196;2023-04-15T09:17:33;13.20;99.90
20732;DHT22;10527;52.124;5.196;2023-04-15T09:20:14;13.30;99.90
20732;DHT22;10527;52.124;5.196;2023-04-15T09:22:45;13.30;99.90
20732;DHT22;10527;52.124;5.196;2023-04-15T09:27:58;13.30;99.90
20732;DHT22;10527;52.124;5.196;2023-04-15T09:30:28;13.20;99.90
20732;DHT22;10527;52.124;5.196;2023-04-15T09:33:00;13.20;99.90
20732;DHT22;10527;52.124;5.196;2023-04-15T09:35:28;13.20;99.90
20732;DHT22;10527;52.124;5.196;2023-04-15T09:38:03;13.10;99.90
20732;DHT22;10527;52.124;5.196;2023-04-15T09:40:38;13.00;99.90
20732;DHT22;10527;52.124;5.196;2023-04-15T09:43:08;12.90;99.90
20732;DHT22;10527;52.124;5.196;2023-04-15T09:45:38;12.70;99.90
20732;DHT22;10527;52.124;5.196;2023-04-15T09:50:57;12.70;99.90
20732;DHT22;10527;52.124;5.196;2023-04-15T09:53:26;12.90;99.90
20732;DHT22;10527;52.124;5.196;2023-04-15T09:56:01;12.90;99.90
20732;DHT22;10527;52.124;5.196;2023-04-15T09:58:30;13.10;99.90
20732;DHT22;10527;52.124;5.196;2023-04-15T10:01:02;13.00;99.90
20732;DHT22;10527;52.124;5.196;2023-04-15T10:03:32;13.30;99.90
20732;DHT22;10527;52.124;5.196;2023-04-15T10:06:04;13.10;99.90
20732;DHT22;10527;52.124;5.196;2023-04-15T10:08:32;13.20;99.90
20732;DHT22;10527;52.124;5.196;2023-04-15T10:11:03;13.50;99.90
20732;DHT22;10527;52.124;5.196;2023-04-15T10:13:31;13.40;99.90
20732;DHT22;10527;52.124;5.196;2023-04-15T10:16:06;13.50;99.90
20732;DHT22;10527;52.124;5.196;2023-04-15T10:18:43;13.60;99.90
20732;DHT22;10527;52.124;5.196;2023-04-15T10:21:11;13.60;99.90
20732;DHT22;10527;52.124;5.196;2023-04-15T10:23:44;13.60;99.90
20732;DHT22;10527;52.124;5.196;2023-04-15T10:26:15;13.60;99.90
20732;DHT22;10527;52.124;5.196;2023-04-15T10:28:44;13.70;99.90
20732;DHT22;10527;52.124;5.196;2023-04-15T10:31:13;13.80;99.90
20732;DHT22;10527;52.124;5.196;2023-04-15T10:33:41;14.10;99.90
20732;DHT22;10527;52.124;5.196;2023-04-15T10:36:11;14.10;99.90
20732;DHT22;10527;52.124;5.196;2023-04-15T10:38:43;14.30;99.90
20732;DHT22;10527;52.124;5.196;2023-04-15T10:41:14;14.50;99.90
20732;DHT22;10527;52.124;5.196;2023-04-15T10:46:40;14.30;99.90
20732;DHT22;10527;52.124;5.196;2023-04-15T10:49:14;13.60;99.90
20732;DHT22;10527;52.124;5.196;2023-04-15T10:51:45;13.60;99.90
20732;DHT22;10527;52.124;5.196;2023-04-15T10:54:30;13.50;99.90
20732;DHT22;10527;52.124;5.196;2023-04-15T10:59:35;13.60;99.90
20732;DHT22;10527;52.124;5.196;2023-04-15T11:02:06;14.00;99.90
20732;DHT22;10527;52.124;5.196;2023-04-15T11:04:52;14.10;99.90
20732;DHT22;10527;52.124;5.196;2023-04-15T11:07:59;14.30;99.90
20732;DHT22;10527;52.124;5.196;2023-04-15T11:12:58;13.50;99.90
20732;DHT22;10527;52.124;5.196;2023-04-15T11:15:34;13.80;99.90
20732;DHT22;10527;52.124;5.196;2023-04-15T11:18:18;14.10;99.90
20732;DHT22;10527;52.124;5.196;2023-04-15T11:20:56;14.20;99.90
20732;DHT22;10527;52.124;5.196;2023-04-15T11:23:39;14.40;99.90
20732;DHT22;10527;52.124;5.196;2023-04-15T11:26:10;14.70;99.90
20732;DHT22;10527;52.124;5.196;2023-04-15T11:29:00;14.60;99.90
20732;DHT22;10527;52.124;5.196;2023-04-15T11:31:27;14.30;99.90
20732;DHT22;10527;52.124;5.196;2023-04-15T11:33:57;14.30;99.90
20732;DHT22;10527;52.124;5.196;2023-04-15T11:36:45;14.50;99.90
20732;DHT22;10527;52.124;5.196;2023-04-15T11:39:12;14.50;99.90
20732;DHT22;10527;52.124;5.196;2023-04-15T11:41:40;14.80;99.90
20732;DHT22;10527;52.124;5.196;2023-04-15T11:44:18;14.90;99.90
20732;DHT22;10527;52.124;5.196;2023-04-15T11:46:44;14.70;99.90
20732;DHT22;10527;52.124;5.196;2023-04-15T11:49:24;14.70;99.90
20732;DHT22;10527;52.124;5.196;2023-04-15T11:52:00;14.70;99.90
20732;DHT22;10527;52.124;5.196;2023-04-15T11:54:28;14.60;99.90
20732;DHT22;10527;52.124;5.196;2023-04-15T11:57:15;14.60;99.90
20732;DHT22;10527;52.124;5.196;2023-04-15T11:59:43;14.10;99.90
20732;DHT22;10527;52.124;5.196;2023-04-15T12:02:12;14.20;99.90
20732;DHT22;10527;52.124;5.196;2023-04-15T12:04:40;14.00;99.90
20732;DHT22;10527;52.124;5.196;2023-04-15T12:07:08;14.20;99.90
20732;DHT22;10527;52.124;5.196;2023-04-15T12:09:37;13.90;99.90
20732;DHT22;10527;52.124;5.196;2023-04-15T12:12:07;13.90;99.90
20732;DHT22;10527;52.124;5.196;2023-04-15T12:14:34;13.70;99.90
20732;DHT22;10527;52.124;5.196;2023-04-15T12:17:06;13.70;99.90
20732;DHT22;10527;52.124;5.196;2023-04-15T12:19:38;14.00;99.90
20732;DHT22;10527;52.124;5.196;2023-04-15T12:22:15;14.00;99.90
20732;DHT22;10527;52.124;5.196;2023-04-15T12:24:43;14.20;99.90
20732;DHT22;10527;52.124;5.196;2023-04-15T12:27:15;13.90;99.90
20732;DHT22;10527;52.124;5.196;2023-04-15T12:29:42;13.80;99.90
20732;DHT22;10527;52.124;5.196;2023-04-15T12:32:11;14.00;99.90
20732;DHT22;10527;52.124;5.196;2023-04-15T12:34:52;14.00;99.90
20732;DHT22;10527;52.124;5.196;2023-04-15T12:37:22;13.90;99.90
20732;DHT22;10527;52.124;5.196;2023-04-15T12:39:50;14.00;99.90
20732;DHT22;10527;52.124;5.196;2023-04-15T12:42:17;13.90;99.90
20732;DHT22;10527;52.124;5.196;2023-04-15T12:44:45;13.80;99.90
20732;DHT22;10527;52.124;5.196;2023-04-15T12:47:12;13.90;99.90
20732;DHT22;10527;52.124;5.196;2023-04-15T12:49:39;14.10;99.90
20732;DHT22;10527;52.124;5.196;2023-04-15T12:52:07;13.90;99.90
20732;DHT22;10527;52.124;5.196;2023-04-15T12:54:33;13.80;99.90
20732;DHT22;10527;52.124;5.196;2023-04-15T12:57:02;13.70;99.90
20732;DHT22;10527;52.124;5.196;2023-04-15T12:59:32;13.70;99.90
20732;DHT22;10527;52.124;5.196;2023-04-15T13:01:59;13.60;99.90
20732;DHT22;10527;52.124;5.196;2023-04-15T13:04:31;13.60;99.90
20732;DHT22;10527;52.124;5.196;2023-04-15T13:06:58;13.60;99.90
20732;DHT22;10527;52.124;5.196;2023-04-15T13:09:24;13.40;99.90
20732;DHT22;10527;52.124;5.196;2023-04-15T13:11:51;13.40;99.90
20732;DHT22;10527;52.124;5.196;2023-04-15T13:14:19;13.30;99.90
20732;DHT22;10527;52.124;5.196;2023-04-15T13:16:46;13.30;99.90
20732;DHT22;10527;52.124;5.196;2023-04-15T13:19:13;13.40;99.90
20732;DHT22;10527;52.124;5.196;2023-04-15T13:21:40;13.40;99.90
20732;DHT22;10527;52.124;5.196;2023-04-15T13:24:07;13.40;99.90
20732;DHT22;10527;52.124;5.196;2023-04-15T13:26:35;13.50;99.90
20732;DHT22;10527;52.124;5.196;2023-04-15T13:29:03;13.60;99.90
20732;DHT22;10527;52.124;5.196;2023-04-15T13:31:30;13.60;99.90
20732;DHT22;10527;52.124;5.196;2023-04-15T13:33:57;13.40;99.90
20732;DHT22;10527;52.124;5.196;2023-04-15T13:36:23;13.20;99.90
20732;DHT22;10527;52.124;5.196;2023-04-15T13:38:51;13.20;99.90
20732;DHT22;10527;52.124;5.196;2023-04-15T13:41:19;13.30;99.90
20732;DHT22;10527;52.124;5.196;2023-04-15T13:43:46;13.50;99.90
20732;DHT22;10527;52.124;5.196;2023-04-15T13:46:13;13.50;99.90
20732;DHT22;10527;52.124;5.196;2023-04-15T13:48:40;13.20;99.90
20732;DHT22;10527;52.124;5.196;2023-04-15T13:51:07;13.30;99.90
20732;DHT22;10527;52.124;5.196;2023-04-15T13:53:34;13.20;99.90
20732;DHT22;10527;52.124;5.196;2023-04-15T13:56:06;13.00;99.90
20732;DHT22;10527;52.124;5.196;2023-04-15T13:58:33;13.00;99.90
20732;DHT22;10527;52.124;5.196;2023-04-15T14:01:01;13.00;99.90
20732;DHT22;10527;52.124;5.196;2023-04-15T14:03:32;13.00;99.90
20732;DHT22;10527;52.124;5.196;2023-04-15T14:06:00;12.90;99.90
20732;DHT22;10527;52.124;5.196;2023-04-15T14:08:28;12.90;99.90
20732;DHT22;10527;52.124;5.196;2023-04-15T14:10:56;12.60;99.90
20732;DHT22;10527;52.124;5.196;2023-04-15T14:13:23;12.50;99.90
20732;DHT22;10527;52.124;5.196;2023-04-15T14:15:50;12.40;99.90
20732;DHT22;10527;52.124;5.196;2023-04-15T14:18:17;12.40;99.90
20732;DHT22;10527;52.124;5.196;2023-04-15T14:20:44;12.30;99.90
20732;DHT22;10527;52.124;5.196;2023-04-15T14:23:11;12.30;99.90
20732;DHT22;10527;52.124;5.196;2023-04-15T14:25:37;12.20;99.90
20732;DHT22;10527;52.124;5.196;2023-04-15T14:28:05;12.10;99.90
20732;DHT22;10527;52.124;5.196;2023-04-15T14:30:36;12.00;99.90
20732;DHT22;10527;52.124;5.196;2023-04-15T14:33:03;12.00;99.90
20732;DHT22;10527;52.124;5.196;2023-04-15T14:35:30;12.00;99.90
20732;DHT22;10527;52.124;5.196;2023-04-15T14:37:57;11.80;99.90
20732;DHT22;10527;52.124;5.196;2023-04-15T14:40:23;12.00;99.90
20732;DHT22;10527;52.124;5.196;2023-04-15T14:42:50;12.10;99.90
20732;DHT22;10527;52.124;5.196;2023-04-15T14:45:17;12.00;99.90
20732;DHT22;10527;52.124;5.196;2023-04-15T14:47:44;12.00;99.90
20732;DHT22;10527;52.124;5.196;2023-04-15T14:50:11;11.90;99.90
20732;DHT22;10527;52.124;5.196;2023-04-15T14:52:38;11.80;99.90
20732;DHT22;10527;52.124;5.196;2023-04-15T14:55:08;11.80;99.90
20732;DHT22;10527;52.124;5.196;2023-04-15T14:57:37;11.80;99.90
20732;DHT22;10527;52.124;5.196;2023-04-15T15:00:05;12.00;99.90
20732;DHT22;10527;52.124;5.196;2023-04-15T15:02:33;11.70;99.90
20732;DHT22;10527;52.124;5.196;2023-04-15T15:05:06;11.80;99.90
20732;DHT22;10527;52.124;5.196;2023-04-15T15:07:37;11.60;99.90
20732;DHT22;10527;52.124;5.196;2023-04-15T15:10:06;11.70;99.90
20732;DHT22;10527;52.124;5.196;2023-04-15T15:12:33;11.80;99.90
20732;DHT22;10527;52.124;5.196;2023-04-15T15:15:02;11.80;99.90
20732;DHT22;10527;52.124;5.196;2023-04-15T15:17:46;11.70;99.90
20732;DHT22;10527;52.124;5.196;2023-04-15T15:20:13;11.60;99.90
20732;DHT22;10527;52.124;5.196;2023-04-15T15:22:42;11.80;99.90
20732;DHT22;10527;52.124;5.196;2023-04-15T15:25:09;11.60;99.90
20732;DHT22;10527;52.124;5.196;2023-04-15T15:27:35;11.30;99.90
20732;DHT22;10527;52.124;5.196;2023-04-15T15:30:04;11.10;99.90
20732;DHT22;10527;52.124;5.196;2023-04-15T15:32:33;11.20;99.90
20732;DHT22;10527;52.124;5.196;2023-04-15T15:35:00;11.20;99.90
20732;DHT22;10527;52.124;5.196;2023-04-15T15:37:29;11.20;99.90
20732;DHT22;10527;52.124;5.196;2023-04-15T15:39:57;11.10;99.90
20732;DHT22;10527;52.124;5.196;2023-04-15T15:42:24;11.20;99.90
20732;DHT22;10527;52.124;5.196;2023-04-15T15:44:52;11.20;99.90
20732;DHT22;10527;52.124;5.196;2023-04-15T15:47:19;11.20;99.90
20732;DHT22;10527;52.124;5.196;2023-04-15T15:49:47;11.10;99.90
20732;DHT22;10527;52.124;5.196;2023-04-15T15:52:14;10.90;99.90
20732;DHT22;10527;52.124;5.196;2023-04-15T15:54:41;10.80;99.90
20732;DHT22;10527;52.124;5.196;2023-04-15T15:57:08;10.70;99.90
20732;DHT22;10527;52.124;5.196;2023-04-15T15:59:35;10.80;99.90